sensor_id;sensor_type;location;lat;lon;timestamp;P1;durP1;ratioP1;P2;durP2;ratioP2
21771;SDS011;11047;47.904;8.110;2023-05-03T00:00:14;8.88;;;5.70;;
21771;SDS011;11047;47.904;8.110;2023-05-03T00:02:41;11.40;;;5.38;;
21771;SDS011;11047;47.904;8.110;2023-05-03T00:05:09;9.75;;;5.53;;
21771;SDS011;11047;47.904;8.110;2023-05-03T00:07:37;8.55;;;5.15;;
21771;SDS011;11047;47.904;8.110;2023-05-03T00:10:06;8.57;;;5.53;;
21771;SDS011;11047;47.904;8.110;2023-05-03T00:12:34;7.78;;;5.25;;
21771;SDS011;11047;47.904;8.110;2023-05-03T00:15:03;7.63;;;4.90;;
21771;SDS011;11047;47.904;8.110;2023-05-03T00:17:31;8.63;;;5.25;;
21771;SDS011;11047;47.904;8.110;2023-05-03T00:19:57;7.13;;;5.40;;
21771;SDS011;11047;47.904;8.110;2023-05-03T00:22:25;7.28;;;4.97;;
21771;SDS011;11047;47.904;8.110;2023-05-03T00:24:52;9.18;;;5.95;;
21771;SDS011;11047;47.904;8.110;2023-05-03T00:27:21;10.85;;;5.30;;
21771;SDS011;11047;47.904;8.110;2023-05-03T00:29:49;8.77;;;4.57;;
21771;SDS011;11047;47.904;8.110;2023-05-03T00:32:16;7.05;;;5.25;;
21771;SDS011;11047;47.904;8.110;2023-05-03T00:34:45;8.70;;;5.35;;
21771;SDS011;11047;47.904;8.110;2023-05-03T00:37:11;8.00;;;4.60;;
21771;SDS011;11047;47.904;8.110;2023-05-03T00:39:38;6.63;;;5.40;;
21771;SDS011;11047;47.904;8.110;2023-05-03T00:42:05;8.20;;;5.40;;
21771;SDS011;11047;47.904;8.110;2023-05-03T00:44:33;9.50;;;5.97;;
21771;SDS011;11047;47.904;8.110;2023-05-03T00:47:00;9.00;;;5.85;;
21771;SDS011;11047;47.904;8.110;2023-05-03T00:49:27;9.75;;;5.70;;
21771;SDS011;11047;47.904;8.110;2023-05-03T00:51:54;9.63;;;5.35;;
21771;SDS011;11047;47.904;8.110;2023-05-03T00:54:23;13.48;;;5.07;;
21771;SDS011;11047;47.904;8.110;2023-05-03T00:56:51;6.55;;;4.88;;
21771;SDS011;11047;47.904;8.110;2023-05-03T00:59:18;9.52;;;6.03;;
21771;SDS011;11047;47.904;8.110;2023-05-03T01:01:48;7.88;;;5.32;;
21771;SDS011;11047;47.904;8.110;2023-05-03T01:04:15;8.43;;;5.18;;
21771;SDS011;11047;47.904;8.110;2023-05-03T01:06:44;7.78;;;4.93;;
21771;SDS011;11047;47.904;8.110;2023-05-03T01:09:21;11.65;;;5.82;;
21771;SDS011;11047;47.904;8.110;2023-05-03T01:11:54;8.35;;;5.03;;
21771;SDS011;11047;47.904;8.110;2023-05-03T01:14:32;7.65;;;4.60;;
21771;SDS011;11047;47.904;8.110;2023-05-03T01:17:08;9.45;;;4.75;;
21771;SDS011;11047;47.904;8.110;2023-05-03T01:19:40;8.73;;;4.45;;
21771;SDS011;11047;47.904;8.110;2023-05-03T01:22:14;9.55;;;5.05;;
21771;SDS011;11047;47.904;8.110;2023-05-03T01:24:49;11.75;;;5.20;;
21771;SDS011;11047;47.904;8.110;2023-05-03T01:27:21;12.83;;;5.43;;
21771;SDS011;11047;47.904;8.110;2023-05-03T01:29:47;11.55;;;4.93;;
21771;SDS011;11047;47.904;8.110;2023-05-03T01:32:17;11.48;;;5.10;;
21771;SDS011;11047;47.904;8.110;2023-05-03T01:34:53;11.88;;;5.35;;
21771;SDS011;11047;47.904;8.110;2023-05-03T01:37:26;9.65;;;4.75;;
21771;SDS011;11047;47.904;8.110;2023-05-03T01:39:55;7.53;;;5.30;;
21771;SDS011;11047;47.904;8.110;2023-05-03T01:42:27;6.90;;;4.93;;
21771;SDS011;11047;47.904;8.110;2023-05-03T01:44:55;10.93;;;5.57;;
21771;SDS011;11047;47.904;8.110;2023-05-03T01:47:23;7.72;;;4.32;;
21771;SDS011;11047;47.904;8.110;2023-05-03T01:49:50;8.73;;;5.20;;
21771;SDS011;11047;47.904;8.110;2023-05-03T01:52:17;7.55;;;4.97;;
21771;SDS011;11047;47.904;8.110;2023-05-03T01:54:44;7.30;;;4.60;;
21771;SDS011;11047;47.904;8.110;2023-05-03T01:57:11;6.78;;;4.40;;
21771;SDS011;11047;47.904;8.110;2023-05-03T01:59:39;8.23;;;5.05;;
21771;SDS011;11047;47.904;8.110;2023-05-03T02:02:06;12.23;;;5.00;;
21771;SDS011;11047;47.904;8.110;2023-05-03T02:04:34;7.07;;;4.78;;
21771;SDS011;11047;47.904;8.110;2023-05-03T02:07:02;7.15;;;4.70;;
21771;SDS011;11047;47.904;8.110;2023-05-03T02:09:28;10.63;;;5.25;;
21771;SDS011;11047;47.904;8.110;2023-05-03T02:11:55;6.88;;;4.22;;
21771;SDS011;11047;47.904;8.110;2023-05-03T02:14:22;10.13;;;5.78;;
21771;SDS011;11047;47.904;8.110;2023-05-03T02:16:51;8.20;;;4.82;;
21771;SDS011;11047;47.904;8.110;2023-05-03T02:19:19;11.40;;;5.65;;
21771;SDS011;11047;47.904;8.110;2023-05-03T02:21:46;12.85;;;6.10;;
21771;SDS011;11047;47.904;8.110;2023-05-03T02:24:13;7.72;;;5.35;;
21771;SDS011;11047;47.904;8.110;2023-05-03T02:26:40;11.52;;;5.32;;
21771;SDS011;11047;47.904;8.110;2023-05-03T02:29:07;14.77;;;6.20;;
21771;SDS011;11047;47.904;8.110;2023-05-03T02:31:34;15.10;;;5.70;;
21771;SDS011;11047;47.904;8.110;2023-05-03T02:34:02;9.50;;;5.20;;
21771;SDS011;11047;47.904;8.110;2023-05-03T02:36:29;11.88;;;5.60;;
21771;SDS011;11047;47.904;8.110;2023-05-03T02:38:56;7.43;;;5.07;;
21771;SDS011;11047;47.904;8.110;2023-05-03T02:41:23;8.52;;;5.60;;
21771;SDS011;11047;47.904;8.110;2023-05-03T02:43:50;8.82;;;5.50;;
21771;SDS011;11047;47.904;8.110;2023-05-03T02:46:17;9.55;;;5.20;;
21771;SDS011;11047;47.904;8.110;2023-05-03T02:48:44;10.70;;;4.80;;
21771;SDS011;11047;47.904;8.110;2023-05-03T02:51:12;11.27;;;5.63;;
21771;SDS011;11047;47.904;8.110;2023-05-03T02:53:39;9.18;;;5.22;;
21771;SDS011;11047;47.904;8.110;2023-05-03T02:56:06;10.75;;;5.88;;
21771;SDS011;11047;47.904;8.110;2023-05-03T02:58:33;9.95;;;5.38;;
21771;SDS011;11047;47.904;8.110;2023-05-03T03:01:00;8.50;;;5.22;;
21771;SDS011;11047;47.904;8.110;2023-05-03T03:03:27;9.10;;;5.57;;
21771;SDS011;11047;47.904;8.110;2023-05-03T03:05:54;7.85;;;4.85;;
21771;SDS011;11047;47.904;8.110;2023-05-03T03:08:22;8.80;;;5.22;;
21771;SDS011;11047;47.904;8.110;2023-05-03T03:10:49;10.13;;;5.03;;
21771;SDS011;11047;47.904;8.110;2023-05-03T03:13:16;8.43;;;5.50;;
21771;SDS011;11047;47.904;8.110;2023-05-03T03:15:43;11.00;;;5.18;;
21771;SDS011;11047;47.904;8.110;2023-05-03T03:18:10;7.82;;;5.32;;
21771;SDS011;11047;47.904;8.110;2023-05-03T03:20:37;7.75;;;4.68;;
21771;SDS011;11047;47.904;8.110;2023-05-03T03:23:03;8.80;;;5.10;;
21771;SDS011;11047;47.904;8.110;2023-05-03T03:25:32;8.85;;;5.57;;
21771;SDS011;11047;47.904;8.110;2023-05-03T03:27:59;8.07;;;5.47;;
21771;SDS011;11047;47.904;8.110;2023-05-03T03:30:26;8.05;;;4.65;;
21771;SDS011;11047;47.904;8.110;2023-05-03T03:32:53;7.13;;;4.88;;
21771;SDS011;11047;47.904;8.110;2023-05-03T03:35:20;9.52;;;5.60;;
21771;SDS011;11047;47.904;8.110;2023-05-03T03:37:47;10.48;;;5.80;;
21771;SDS011;11047;47.904;8.110;2023-05-03T03:40:14;8.35;;;5.55;;
21771;SDS011;11047;47.904;8.110;2023-05-03T03:42:42;11.60;;;5.70;;
21771;SDS011;11047;47.904;8.110;2023-05-03T03:45:09;9.05;;;5.45;;
21771;SDS011;11047;47.904;8.110;2023-05-03T03:47:37;7.93;;;5.20;;
21771;SDS011;11047;47.904;8.110;2023-05-03T03:50:04;8.52;;;5.47;;
21771;SDS011;11047;47.904;8.110;2023-05-03T03:52:31;11.50;;;5.68;;
21771;SDS011;11047;47.904;8.110;2023-05-03T03:54:58;10.18;;;5.22;;
21771;SDS011;11047;47.904;8.110;2023-05-03T03:57:25;16.65;;;5.65;;
21771;SDS011;11047;47.904;8.110;2023-05-03T03:59:55;8.98;;;5.53;;
21771;SDS011;11047;47.904;8.110;2023-05-03T04:02:23;11.60;;;5.70;;
21771;SDS011;11047;47.904;8.110;2023-05-03T04:04:50;10.90;;;5.75;;
21771;SDS011;11047;47.904;8.110;2023-05-03T04:07:17;13.68;;;6.80;;
21771;SDS011;11047;47.904;8.110;2023-05-03T04:09:44;11.50;;;6.40;;
21771;SDS011;11047;47.904;8.110;2023-05-03T04:12:10;12.55;;;6.80;;
21771;SDS011;11047;47.904;8.110;2023-05-03T04:14:37;10.52;;;5.60;;
21771;SDS011;11047;47.904;8.110;2023-05-03T04:17:06;10.77;;;5.60;;
21771;SDS011;11047;47.904;8.110;2023-05-03T04:19:32;11.18;;;5.68;;
21771;SDS011;11047;47.904;8.110;2023-05-03T04:21:59;9.30;;;5.53;;
21771;SDS011;11047;47.904;8.110;2023-05-03T04:24:26;8.93;;;4.82;;
21771;SDS011;11047;47.904;8.110;2023-05-03T04:26:55;13.77;;;4.63;;
21771;SDS011;11047;47.904;8.110;2023-05-03T04:29:23;8.30;;;4.60;;
21771;SDS011;11047;47.904;8.110;2023-05-03T04:31:50;7.43;;;4.65;;
21771;SDS011;11047;47.904;8.110;2023-05-03T04:34:18;7.68;;;4.97;;
21771;SDS011;11047;47.904;8.110;2023-05-03T04:36:45;8.80;;;4.75;;
21771;SDS011;11047;47.904;8.110;2023-05-03T04:39:13;9.43;;;4.30;;
21771;SDS011;11047;47.904;8.110;2023-05-03T04:41:40;8.27;;;5.00;;
21771;SDS011;11047;47.904;8.110;2023-05-03T04:44:07;6.97;;;4.38;;
21771;SDS011;11047;47.904;8.110;2023-05-03T04:46:33;8.63;;;4.35;;
21771;SDS011;11047;47.904;8.110;2023-05-03T04:49:00;5.85;;;4.05;;
21771;SDS011;11047;47.904;8.110;2023-05-03T04:51:29;7.45;;;4.10;;
21771;SDS011;11047;47.904;8.110;2023-05-03T04:53:56;7.22;;;4.32;;
21771;SDS011;11047;47.904;8.110;2023-05-03T04:56:24;7.18;;;3.88;;
21771;SDS011;11047;47.904;8.110;2023-05-03T04:58:51;7.85;;;4.35;;
21771;SDS011;11047;47.904;8.110;2023-05-03T05:01:18;5.60;;;3.30;;
21771;SDS011;11047;47.904;8.110;2023-05-03T05:03:50;8.52;;;3.50;;
21771;SDS011;11047;47.904;8.110;2023-05-03T05:06:17;4.93;;;3.65;;
21771;SDS011;11047;47.904;8.110;2023-05-03T05:08:45;5.20;;;3.58;;
21771;SDS011;11047;47.904;8.110;2023-05-03T05:11:12;6.63;;;3.88;;
21771;SDS011;11047;47.904;8.110;2023-05-03T05:13:39;5.53;;;4.07;;
21771;SDS011;11047;47.904;8.110;2023-05-03T05:16:06;6.05;;;3.85;;
21771;SDS011;11047;47.904;8.110;2023-05-03T05:18:33;5.60;;;3.65;;
21771;SDS011;11047;47.904;8.110;2023-05-03T05:21:00;6.75;;;4.53;;
21771;SDS011;11047;47.904;8.110;2023-05-03T05:23:27;5.53;;;3.65;;
21771;SDS011;11047;47.904;8.110;2023-05-03T05:25:55;6.18;;;3.97;;
21771;SDS011;11047;47.904;8.110;2023-05-03T05:28:24;6.78;;;4.10;;
21771;SDS011;11047;47.904;8.110;2023-05-03T05:30:51;7.40;;;4.80;;
21771;SDS011;11047;47.904;8.110;2023-05-03T05:33:18;6.22;;;4.22;;
21771;SDS011;11047;47.904;8.110;2023-05-03T05:35:45;5.50;;;4.63;;
21771;SDS011;11047;47.904;8.110;2023-05-03T05:38:15;8.00;;;4.68;;
21771;SDS011;11047;47.904;8.110;2023-05-03T05:40:42;6.68;;;4.25;;
21771;SDS011;11047;47.904;8.110;2023-05-03T05:43:10;6.18;;;4.20;;
21771;SDS011;11047;47.904;8.110;2023-05-03T05:45:37;5.78;;;4.25;;
21771;SDS011;11047;47.904;8.110;2023-05-03T05:48:05;7.47;;;4.53;;
21771;SDS011;11047;47.904;8.110;2023-05-03T05:50:32;7.40;;;4.78;;
21771;SDS011;11047;47.904;8.110;2023-05-03T05:52:59;6.90;;;3.72;;
21771;SDS011;11047;47.904;8.110;2023-05-03T05:55:27;8.63;;;4.72;;
21771;SDS011;11047;47.904;8.110;2023-05-03T05:57:53;7.70;;;4.50;;
21771;SDS011;11047;47.904;8.110;2023-05-03T06:00:22;8.98;;;5.47;;
21771;SDS011;11047;47.904;8.110;2023-05-03T06:02:49;8.02;;;4.65;;
21771;SDS011;11047;47.904;8.110;2023-05-03T06:05:16;10.15;;;6.55;;
21771;SDS011;11047;47.904;8.110;2023-05-03T06:07:43;10.73;;;6.53;;
21771;SDS011;11047;47.904;8.110;2023-05-03T06:10:10;12.45;;;7.32;;
21771;SDS011;11047;47.904;8.110;2023-05-03T06:12:37;12.32;;;8.18;;
21771;SDS011;11047;47.904;8.110;2023-05-03T06:15:04;12.80;;;8.10;;
21771;SDS011;11047;47.904;8.110;2023-05-03T06:17:34;14.90;;;9.25;;
21771;SDS011;11047;47.904;8.110;2023-05-03T06:20:01;17.27;;;10.32;;
21771;SDS011;11047;47.904;8.110;2023-05-03T06:22:28;19.60;;;10.43;;
21771;SDS011;11047;47.904;8.110;2023-05-03T06:24:56;15.45;;;9.68;;
21771;SDS011;11047;47.904;8.110;2023-05-03T06:27:22;13.30;;;9.73;;
21771;SDS011;11047;47.904;8.110;2023-05-03T06:29:49;17.98;;;10.32;;
21771;SDS011;11047;47.904;8.110;2023-05-03T06:32:17;17.70;;;11.20;;
21771;SDS011;11047;47.904;8.110;2023-05-03T06:34:47;18.52;;;11.65;;
21771;SDS011;11047;47.904;8.110;2023-05-03T06:37:14;17.58;;;11.15;;
21771;SDS011;11047;47.904;8.110;2023-05-03T06:39:40;17.98;;;11.88;;
21771;SDS011;11047;47.904;8.110;2023-05-03T06:42:07;15.43;;;10.32;;
21771;SDS011;11047;47.904;8.110;2023-05-03T06:44:34;15.38;;;11.40;;
21771;SDS011;11047;47.904;8.110;2023-05-03T06:47:01;14.35;;;11.30;;
21771;SDS011;11047;47.904;8.110;2023-05-03T06:49:28;12.57;;;9.65;;
21771;SDS011;11047;47.904;8.110;2023-05-03T06:51:56;12.05;;;8.35;;
21771;SDS011;11047;47.904;8.110;2023-05-03T06:54:23;13.77;;;11.25;;
21771;SDS011;11047;47.904;8.110;2023-05-03T06:56:50;13.02;;;9.85;;
21771;SDS011;11047;47.904;8.110;2023-05-03T06:59:17;14.43;;;10.52;;
21771;SDS011;11047;47.904;8.110;2023-05-03T07:01:44;14.32;;;8.23;;
21771;SDS011;11047;47.904;8.110;2023-05-03T07:04:11;11.40;;;8.55;;
21771;SDS011;11047;47.904;8.110;2023-05-03T07:06:38;10.88;;;8.57;;
21771;SDS011;11047;47.904;8.110;2023-05-03T07:09:06;11.73;;;7.68;;
21771;SDS011;11047;47.904;8.110;2023-05-03T07:11:33;12.07;;;7.53;;
21771;SDS011;11047;47.904;8.110;2023-05-03T07:14:03;11.43;;;6.32;;
21771;SDS011;11047;47.904;8.110;2023-05-03T07:16:30;8.18;;;7.07;;
21771;SDS011;11047;47.904;8.110;2023-05-03T07:18:57;8.60;;;7.03;;
21771;SDS011;11047;47.904;8.110;2023-05-03T07:21:24;8.52;;;7.05;;
21771;SDS011;11047;47.904;8.110;2023-05-03T07:23:53;9.02;;;6.22;;
21771;SDS011;11047;47.904;8.110;2023-05-03T07:26:21;8.18;;;6.35;;
21771;SDS011;11047;47.904;8.110;2023-05-03T07:28:50;8.90;;;6.85;;
21771;SDS011;11047;47.904;8.110;2023-05-03T07:31:17;7.80;;;6.70;;
21771;SDS011;11047;47.904;8.110;2023-05-03T07:33:44;7.88;;;6.30;;
21771;SDS011;11047;47.904;8.110;2023-05-03T07:36:11;9.15;;;7.25;;
21771;SDS011;11047;47.904;8.110;2023-05-03T07:38:38;9.00;;;7.85;;
21771;SDS011;11047;47.904;8.110;2023-05-03T07:41:05;9.95;;;7.80;;
21771;SDS011;11047;47.904;8.110;2023-05-03T07:43:33;10.98;;;7.43;;
21771;SDS011;11047;47.904;8.110;2023-05-03T07:46:00;8.75;;;7.13;;
21771;SDS011;11047;47.904;8.110;2023-05-03T07:48:27;7.55;;;6.55;;
21771;SDS011;11047;47.904;8.110;2023-05-03T07:50:54;7.72;;;6.57;;
21771;SDS011;11047;47.904;8.110;2023-05-03T07:53:21;8.32;;;6.22;;
21771;SDS011;11047;47.904;8.110;2023-05-03T07:55:48;7.95;;;7.15;;
21771;SDS011;11047;47.904;8.110;2023-05-03T07:58:18;7.93;;;6.97;;
21771;SDS011;11047;47.904;8.110;2023-05-03T08:00:46;8.57;;;7.43;;
21771;SDS011;11047;47.904;8.110;2023-05-03T08:03:13;9.85;;;7.03;;
21771;SDS011;11047;47.904;8.110;2023-05-03T08:05:40;10.65;;;7.20;;
21771;SDS011;11047;47.904;8.110;2023-05-03T08:08:07;7.72;;;6.50;;
21771;SDS011;11047;47.904;8.110;2023-05-03T08:10:34;8.55;;;7.55;;
21771;SDS011;11047;47.904;8.110;2023-05-03T08:13:02;7.95;;;7.13;;
21771;SDS011;11047;47.904;8.110;2023-05-03T08:15:30;7.93;;;7.05;;
21771;SDS011;11047;47.904;8.110;2023-05-03T08:17:58;6.63;;;5.68;;
21771;SDS011;11047;47.904;8.110;2023-05-03T08:20:25;5.65;;;5.15;;
21771;SDS011;11047;47.904;8.110;2023-05-03T08:22:52;7.47;;;6.10;;
21771;SDS011;11047;47.904;8.110;2023-05-03T08:25:20;10.13;;;6.57;;
21771;SDS011;11047;47.904;8.110;2023-05-03T08:27:49;12.02;;;5.50;;
21771;SDS011;11047;47.904;8.110;2023-05-03T08:30:16;6.78;;;6.07;;
21771;SDS011;11047;47.904;8.110;2023-05-03T08:32:43;8.25;;;6.28;;
21771;SDS011;11047;47.904;8.110;2023-05-03T08:35:11;7.35;;;5.88;;
21771;SDS011;11047;47.904;8.110;2023-05-03T08:37:39;5.40;;;4.68;;
21771;SDS011;11047;47.904;8.110;2023-05-03T08:40:07;5.55;;;4.50;;
21771;SDS011;11047;47.904;8.110;2023-05-03T08:42:40;7.18;;;5.00;;
21771;SDS011;11047;47.904;8.110;2023-05-03T08:45:11;5.63;;;4.88;;
21771;SDS011;11047;47.904;8.110;2023-05-03T08:47:40;6.53;;;5.40;;
21771;SDS011;11047;47.904;8.110;2023-05-03T08:50:09;5.22;;;4.70;;
21771;SDS011;11047;47.904;8.110;2023-05-03T08:52:38;7.88;;;5.55;;
21771;SDS011;11047;47.904;8.110;2023-05-03T08:55:06;5.03;;;4.45;;
21771;SDS011;11047;47.904;8.110;2023-05-03T08:57:34;5.95;;;4.68;;
21771;SDS011;11047;47.904;8.110;2023-05-03T09:00:01;4.78;;;4.32;;
21771;SDS011;11047;47.904;8.110;2023-05-03T09:02:34;5.43;;;4.60;;
21771;SDS011;11047;47.904;8.110;2023-05-03T09:05:03;5.75;;;4.82;;
21771;SDS011;11047;47.904;8.110;2023-05-03T09:07:33;6.18;;;4.43;;
21771;SDS011;11047;47.904;8.110;2023-05-03T09:10:00;6.38;;;5.10;;
21771;SDS011;11047;47.904;8.110;2023-05-03T09:12:33;6.30;;;5.18;;
21771;SDS011;11047;47.904;8.110;2023-05-03T09:15:01;5.40;;;3.95;;
21771;SDS011;11047;47.904;8.110;2023-05-03T09:17:30;6.72;;;4.32;;
21771;SDS011;11047;47.904;8.110;2023-05-03T09:19:58;5.63;;;5.00;;
21771;SDS011;11047;47.904;8.110;2023-05-03T09:22:25;5.60;;;5.10;;
21771;SDS011;11047;47.904;8.110;2023-05-03T09:24:55;4.80;;;4.30;;
21771;SDS011;11047;47.904;8.110;2023-05-03T09:27:23;4.82;;;4.32;;
21771;SDS011;11047;47.904;8.110;2023-05-03T09:29:51;6.13;;;4.40;;
21771;SDS011;11047;47.904;8.110;2023-05-03T09:32:19;5.43;;;4.40;;
21771;SDS011;11047;47.904;8.110;2023-05-03T09:34:46;4.72;;;3.70;;
21771;SDS011;11047;47.904;8.110;2023-05-03T09:37:14;4.82;;;3.88;;
21771;SDS011;11047;47.904;8.110;2023-05-03T09:39:41;6.15;;;3.75;;
21771;SDS011;11047;47.904;8.110;2023-05-03T09:42:16;8.25;;;4.15;;
21771;SDS011;11047;47.904;8.110;2023-05-03T09:44:44;4.38;;;3.80;;
21771;SDS011;11047;47.904;8.110;2023-05-03T09:47:13;4.43;;;4.03;;
21771;SDS011;11047;47.904;8.110;2023-05-03T09:49:40;5.00;;;3.47;;
21771;SDS011;11047;47.904;8.110;2023-05-03T09:52:08;4.80;;;4.07;;
21771;SDS011;11047;47.904;8.110;2023-05-03T09:54:36;6.07;;;4.05;;
21771;SDS011;11047;47.904;8.110;2023-05-03T09:57:03;3.78;;;3.38;;
21771;SDS011;11047;47.904;8.110;2023-05-03T09:59:33;3.65;;;3.35;;
21771;SDS011;11047;47.904;8.110;2023-05-03T10:02:03;5.70;;;3.42;;
21771;SDS011;11047;47.904;8.110;2023-05-03T10:04:35;4.38;;;3.97;;
21771;SDS011;11047;47.904;8.110;2023-05-03T10:07:07;5.32;;;3.55;;
21771;SDS011;11047;47.904;8.110;2023-05-03T10:09:38;5.35;;;3.72;;
21771;SDS011;11047;47.904;8.110;2023-05-03T10:12:08;6.13;;;4.28;;
21771;SDS011;11047;47.904;8.110;2023-05-03T10:14:38;4.85;;;3.78;;
21771;SDS011;11047;47.904;8.110;2023-05-03T10:17:07;5.32;;;4.10;;
21771;SDS011;11047;47.904;8.110;2023-05-03T10:19:40;5.85;;;3.85;;
21771;SDS011;11047;47.904;8.110;2023-05-03T10:22:12;3.53;;;3.20;;
21771;SDS011;11047;47.904;8.110;2023-05-03T10:27:40;4.78;;;4.03;;
21771;SDS011;11047;47.904;8.110;2023-05-03T10:30:09;3.67;;;3.22;;
21771;SDS011;11047;47.904;8.110;2023-05-03T10:32:56;5.38;;;3.60;;
21771;SDS011;11047;47.904;8.110;2023-05-03T10:35:28;4.20;;;3.80;;
21771;SDS011;11047;47.904;8.110;2023-05-03T10:37:55;5.40;;;3.03;;
21771;SDS011;11047;47.904;8.110;2023-05-03T10:40:22;4.90;;;3.38;;
21771;SDS011;11047;47.904;8.110;2023-05-03T10:42:50;4.75;;;3.97;;
21771;SDS011;11047;47.904;8.110;2023-05-03T10:45:22;4.30;;;3.40;;
21771;SDS011;11047;47.904;8.110;2023-05-03T10:48:13;4.22;;;3.65;;
21771;SDS011;11047;47.904;8.110;2023-05-03T10:50:44;4.23;;;3.83;;
21771;SDS011;11047;47.904;8.110;2023-05-03T10:56:00;4.30;;;3.60;;
21771;SDS011;11047;47.904;8.110;2023-05-03T10:58:30;4.05;;;3.55;;
21771;SDS011;11047;47.904;8.110;2023-05-03T11:01:01;5.43;;;3.35;;
21771;SDS011;11047;47.904;8.110;2023-05-03T11:03:42;3.55;;;3.05;;
21771;SDS011;11047;47.904;8.110;2023-05-03T11:06:25;4.35;;;3.17;;
21771;SDS011;11047;47.904;8.110;2023-05-03T11:08:55;6.43;;;3.38;;
21771;SDS011;11047;47.904;8.110;2023-05-03T11:11:22;3.55;;;3.08;;
21771;SDS011;11047;47.904;8.110;2023-05-03T11:13:49;4.55;;;3.97;;
21771;SDS011;11047;47.904;8.110;2023-05-03T11:16:17;5.28;;;3.15;;
21771;SDS011;11047;47.904;8.110;2023-05-03T11:18:45;2.70;;;2.50;;
21771;SDS011;11047;47.904;8.110;2023-05-03T11:21:13;3.47;;;3.17;;
21771;SDS011;11047;47.904;8.110;2023-05-03T11:23:40;3.20;;;2.60;;
21771;SDS011;11047;47.904;8.110;2023-05-03T11:26:07;3.65;;;3.35;;
21771;SDS011;11047;47.904;8.110;2023-05-03T11:28:36;4.63;;;3.40;;
21771;SDS011;11047;47.904;8.110;2023-05-03T11:31:03;3.47;;;3.15;;
21771;SDS011;11047;47.904;8.110;2023-05-03T11:33:33;4.03;;;3.20;;
21771;SDS011;11047;47.904;8.110;2023-05-03T11:36:01;3.50;;;3.20;;
21771;SDS011;11047;47.904;8.110;2023-05-03T11:38:29;4.47;;;3.35;;
21771;SDS011;11047;47.904;8.110;2023-05-03T11:40:57;3.83;;;3.45;;
21771;SDS011;11047;47.904;8.110;2023-05-03T11:43:24;3.83;;;2.72;;
21771;SDS011;11047;47.904;8.110;2023-05-03T11:45:51;4.55;;;3.00;;
21771;SDS011;11047;47.904;8.110;2023-05-03T11:48:21;5.20;;;3.45;;
21771;SDS011;11047;47.904;8.110;2023-05-03T11:50:51;3.72;;;3.28;;
21771;SDS011;11047;47.904;8.110;2023-05-03T11:53:20;5.20;;;3.38;;
21771;SDS011;11047;47.904;8.110;2023-05-03T11:55:49;6.32;;;4.50;;
21771;SDS011;11047;47.904;8.110;2023-05-03T11:58:18;5.10;;;3.65;;
21771;SDS011;11047;47.904;8.110;2023-05-03T12:00:47;4.65;;;4.20;;
21771;SDS011;11047;47.904;8.110;2023-05-03T12:03:18;4.68;;;4.28;;
21771;SDS011;11047;47.904;8.110;2023-05-03T12:05:46;4.70;;;4.30;;
21771;SDS011;11047;47.904;8.110;2023-05-03T12:08:15;4.45;;;3.78;;
21771;SDS011;11047;47.904;8.110;2023-05-03T12:10:44;4.50;;;3.55;;
21771;SDS011;11047;47.904;8.110;2023-05-03T12:13:11;4.55;;;4.00;;
21771;SDS011;11047;47.904;8.110;2023-05-03T12:15:38;6.90;;;3.90;;
21771;SDS011;11047;47.904;8.110;2023-05-03T12:18:07;4.45;;;2.92;;
21771;SDS011;11047;47.904;8.110;2023-05-03T12:20:37;4.78;;;3.80;;
21771;SDS011;11047;47.904;8.110;2023-05-03T12:23:05;5.38;;;3.10;;
21771;SDS011;11047;47.904;8.110;2023-05-03T12:25:34;5.63;;;4.32;;
21771;SDS011;11047;47.904;8.110;2023-05-03T12:28:02;4.35;;;3.95;;
21771;SDS011;11047;47.904;8.110;2023-05-03T12:30:31;4.13;;;3.60;;
21771;SDS011;11047;47.904;8.110;2023-05-03T12:32:58;4.90;;;3.38;;
21771;SDS011;11047;47.904;8.110;2023-05-03T12:35:25;3.15;;;2.85;;
21771;SDS011;11047;47.904;8.110;2023-05-03T12:37:52;6.03;;;3.63;;
21771;SDS011;11047;47.904;8.110;2023-05-03T12:40:19;8.15;;;3.60;;
21771;SDS011;11047;47.904;8.110;2023-05-03T12:42:53;4.25;;;3.85;;
21771;SDS011;11047;47.904;8.110;2023-05-03T12:45:20;5.20;;;2.92;;
21771;SDS011;11047;47.904;8.110;2023-05-03T12:47:47;3.40;;;3.10;;
21771;SDS011;11047;47.904;8.110;2023-05-03T12:50:14;3.50;;;3.20;;
21771;SDS011;11047;47.904;8.110;2023-05-03T12:52:41;3.33;;;2.70;;
21771;SDS011;11047;47.904;8.110;2023-05-03T12:55:08;4.97;;;3.08;;
21771;SDS011;11047;47.904;8.110;2023-05-03T12:57:35;4.03;;;3.50;;
21771;SDS011;11047;47.904;8.110;2023-05-03T13:00:04;4.57;;;4.18;;
21771;SDS011;11047;47.904;8.110;2023-05-03T13:02:31;3.97;;;2.92;;
21771;SDS011;11047;47.904;8.110;2023-05-03T13:04:58;3.58;;;3.17;;
21771;SDS011;11047;47.904;8.110;2023-05-03T13:07:26;3.45;;;3.15;;
21771;SDS011;11047;47.904;8.110;2023-05-03T13:09:53;4.32;;;3.22;;
21771;SDS011;11047;47.904;8.110;2023-05-03T13:12:20;4.75;;;3.08;;
21771;SDS011;11047;47.904;8.110;2023-05-03T13:14:51;6.05;;;3.22;;
21771;SDS011;11047;47.904;8.110;2023-05-03T13:17:20;4.60;;;3.30;;
21771;SDS011;11047;47.904;8.110;2023-05-03T13:19:47;5.18;;;3.40;;
21771;SDS011;11047;47.904;8.110;2023-05-03T13:22:15;5.15;;;4.10;;
21771;SDS011;11047;47.904;8.110;2023-05-03T13:24:43;3.47;;;3.17;;
21771;SDS011;11047;47.904;8.110;2023-05-03T13:27:11;2.85;;;2.63;;
21771;SDS011;11047;47.904;8.110;2023-05-03T13:29:38;2.90;;;2.60;;
21771;SDS011;11047;47.904;8.110;2023-05-03T13:32:05;5.15;;;3.40;;
21771;SDS011;11047;47.904;8.110;2023-05-03T13:34:34;3.97;;;3.15;;
21771;SDS011;11047;47.904;8.110;2023-05-03T13:37:02;3.97;;;2.85;;
21771;SDS011;11047;47.904;8.110;2023-05-03T13:39:29;3.60;;;2.60;;
21771;SDS011;11047;47.904;8.110;2023-05-03T13:41:56;2.53;;;2.25;;
21771;SDS011;11047;47.904;8.110;2023-05-03T13:44:23;4.05;;;2.33;;
21771;SDS011;11047;47.904;8.110;2023-05-03T13:46:50;2.80;;;2.28;;
21771;SDS011;11047;47.904;8.110;2023-05-03T13:49:17;5.72;;;2.60;;
21771;SDS011;11047;47.904;8.110;2023-05-03T13:51:46;2.50;;;2.30;;
21771;SDS011;11047;47.904;8.110;2023-05-03T13:54:13;4.63;;;2.38;;
21771;SDS011;11047;47.904;8.110;2023-05-03T13:56:39;2.80;;;2.38;;
21771;SDS011;11047;47.904;8.110;2023-05-03T13:59:07;2.83;;;2.10;;
21771;SDS011;11047;47.904;8.110;2023-05-03T14:01:34;2.78;;;2.42;;
21771;SDS011;11047;47.904;8.110;2023-05-03T14:04:01;4.18;;;2.28;;
21771;SDS011;11047;47.904;8.110;2023-05-03T14:06:28;5.63;;;2.55;;
21771;SDS011;11047;47.904;8.110;2023-05-03T14:08:57;3.17;;;2.53;;
21771;SDS011;11047;47.904;8.110;2023-05-03T14:11:25;2.40;;;2.20;;
21771;SDS011;11047;47.904;8.110;2023-05-03T14:13:52;3.90;;;2.40;;
21771;SDS011;11047;47.904;8.110;2023-05-03T14:16:20;2.78;;;2.25;;
21771;SDS011;11047;47.904;8.110;2023-05-03T14:18:48;2.10;;;1.90;;
21771;SDS011;11047;47.904;8.110;2023-05-03T14:21:16;4.80;;;2.13;;
21771;SDS011;11047;47.904;8.110;2023-05-03T14:23:43;2.17;;;1.98;;
21771;SDS011;11047;47.904;8.110;2023-05-03T14:26:12;2.50;;;2.30;;
21771;SDS011;11047;47.904;8.110;2023-05-03T14:28:40;2.60;;;2.35;;
21771;SDS011;11047;47.904;8.110;2023-05-03T14:31:07;2.97;;;2.10;;
21771;SDS011;11047;47.904;8.110;2023-05-03T14:33:34;2.83;;;2.58;;
21771;SDS011;11047;47.904;8.110;2023-05-03T14:36:01;3.60;;;2.22;;
21771;SDS011;11047;47.904;8.110;2023-05-03T14:38:32;2.05;;;1.85;;
21771;SDS011;11047;47.904;8.110;2023-05-03T14:40:58;2.63;;;2.42;;
21771;SDS011;11047;47.904;8.110;2023-05-03T14:43:27;2.90;;;2.28;;
21771;SDS011;11047;47.904;8.110;2023-05-03T14:45:54;3.38;;;2.00;;
21771;SDS011;11047;47.904;8.110;2023-05-03T14:48:20;3.03;;;2.30;;
21771;SDS011;11047;47.904;8.110;2023-05-03T14:50:47;2.17;;;1.98;;
21771;SDS011;11047;47.904;8.110;2023-05-03T14:53:14;2.85;;;2.35;;
21771;SDS011;11047;47.904;8.110;2023-05-03T14:55:41;2.00;;;1.80;;